sensor_id;sensor_type;location;lat;lon;timestamp;temperature;humidity
6536;DHT22;34330;52.08032700;5.40923460;2023-11-21T00:00:05;11.40;95.80
6536;DHT22;34330;52.08032700;5.40923460;2023-11-21T00:02:39;11.40;95.90
6536;DHT22;34330;52.08032700;5.40923460;2023-11-21T00:05:08;11.40;95.90
6536;DHT22;34330;52.08032700;5.40923460;2023-11-21T00:07:37;11.40;96.00
6536;DHT22;34330;52.08032700;5.40923460;2023-11-21T00:10:07;11.30;96.00
6536;DHT22;34330;52.08032700;5.40923460;2023-11-21T00:12:37;11.30;96.10
6536;DHT22;34330;52.08032700;5.40923460;2023-11-21T00:15:06;11.30;96.10
6536;DHT22;34330;52.08032700;5.40923460;2023-11-21T00:17:36;11.20;96.20
6536;DHT22;34330;52.08032700;5.40923460;2023-11-21T00:20:06;11.20;96.20
6536;DHT22;34330;52.08032700;5.40923460;2023-11-21T00:22:35;11.20;96.40
6536;DHT22;34330;52.08032700;5.40923460;2023-11-21T00:25:03;11.70;96.60
6536;DHT22;34330;52.08032700;5.40923460;2023-11-21T00:27:33;11.20;96.40
6536;DHT22;34330;52.08032700;5.40923460;2023-11-21T00:30:01;11.20;96.50
6536;DHT22;34330;52.08032700;5.40923460;2023-11-21T00:32:31;11.20;96.50
6536;DHT22;34330;52.08032700;5.40923460;2023-11-21T00:34:59;11.20;96.50
6536;DHT22;34330;52.08032700;5.40923460;2023-11-21T00:37:27;12.40;97.00
6536;DHT22;34330;52.08032700;5.40923460;2023-11-21T00:39:55;11.20;96.60
6536;DHT22;34330;52.08032700;5.40923460;2023-11-21T00:42:23;11.60;96.70
6536;DHT22;34330;52.08032700;5.40923460;2023-11-21T00:44:52;11.10;96.50
6536;DHT22;34330;52.08032700;5.40923460;2023-11-21T00:47:20;11.10;96.50
6536;DHT22;34330;52.08032700;5.40923460;2023-11-21T00:49:49;11.10;96.50
6536;DHT22;34330;52.08032700;5.40923460;2023-11-21T00:52:17;11.10;96.50
6536;DHT22;34330;52.08032700;5.40923460;2023-11-21T00:54:46;11.10;96.50
6536;DHT22;34330;52.08032700;5.40923460;2023-11-21T00:57:15;11.10;96.60
6536;DHT22;34330;52.08032700;5.40923460;2023-11-21T00:59:43;11.10;96.60
6536;DHT22;34330;52.08032700;5.40923460;2023-11-21T01:02:12;11.10;96.60
6536;DHT22;34330;52.08032700;5.40923460;2023-11-21T01:04:40;11.10;96.60
6536;DHT22;34330;52.08032700;5.40923460;2023-11-21T01:07:08;11.10;96.70
6536;DHT22;34330;52.08032700;5.40923460;2023-11-21T01:09:36;11.10;96.70
6536;DHT22;34330;52.08032700;5.40923460;2023-11-21T01:12:04;11.10;96.70
6536;DHT22;34330;52.08032700;5.40923460;2023-11-21T01:14:33;11.10;96.70
6536;DHT22;34330;52.08032700;5.40923460;2023-11-21T01:17:02;11.10;96.70
6536;DHT22;34330;52.08032700;5.40923460;2023-11-21T01:19:32;11.10;96.70
6536;DHT22;34330;52.08032700;5.40923460;2023-11-21T01:22:00;11.10;96.70
6536;DHT22;34330;52.08032700;5.40923460;2023-11-21T01:24:28;11.10;96.70
6536;DHT22;34330;52.08032700;5.40923460;2023-11-21T01:26:56;11.10;96.70
6536;DHT22;34330;52.08032700;5.40923460;2023-11-21T01:29:24;11.20;96.70
6536;DHT22;34330;52.08032700;5.40923460;2023-11-21T01:31:52;11.10;96.70
6536;DHT22;34330;52.08032700;5.40923460;2023-11-21T01:34:20;11.10;96.60
6536;DHT22;34330;52.08032700;5.40923460;2023-11-21T01:36:49;11.10;96.60
6536;DHT22;34330;52.08032700;5.40923460;2023-11-21T01:39:17;11.10;96.60
6536;DHT22;34330;52.08032700;5.40923460;2023-11-21T01:41:50;11.10;96.60
6536;DHT22;34330;52.08032700;5.40923460;2023-11-21T01:44:19;11.10;96.40
6536;DHT22;34330;52.08032700;5.40923460;2023-11-21T01:46:47;11.10;96.50
6536;DHT22;34330;52.08032700;5.40923460;2023-11-21T01:49:16;11.10;96.50
6536;DHT22;34330;52.08032700;5.40923460;2023-11-21T01:51:47;11.10;96.50
6536;DHT22;34330;52.08032700;5.40923460;2023-11-21T01:54:18;11.10;96.60
6536;DHT22;34330;52.08032700;5.40923460;2023-11-21T01:56:46;11.10;96.50
6536;DHT22;34330;52.08032700;5.40923460;2023-11-21T01:59:18;11.00;96.50
6536;DHT22;34330;52.08032700;5.40923460;2023-11-21T02:01:47;11.10;96.60
6536;DHT22;34330;52.08032700;5.40923460;2023-11-21T02:04:18;11.10;96.60
6536;DHT22;34330;52.08032700;5.40923460;2023-11-21T02:06:46;11.10;96.70
6536;DHT22;34330;52.08032700;5.40923460;2023-11-21T02:09:14;11.10;96.60
6536;DHT22;34330;52.08032700;5.40923460;2023-11-21T02:11:44;11.10;96.70
6536;DHT22;34330;52.08032700;5.40923460;2023-11-21T02:14:12;11.10;96.70
6536;DHT22;34330;52.08032700;5.40923460;2023-11-21T02:16:40;11.10;96.70
6536;DHT22;34330;52.08032700;5.40923460;2023-11-21T02:19:11;11.10;96.70
6536;DHT22;34330;52.08032700;5.40923460;2023-11-21T02:21:42;11.20;96.80
6536;DHT22;34330;52.08032700;5.40923460;2023-11-21T02:24:13;11.10;96.70
6536;DHT22;34330;52.08032700;5.40923460;2023-11-21T02:26:41;11.30;96.70
6536;DHT22;34330;52.08032700;5.40923460;2023-11-21T02:29:09;11.10;96.80
6536;DHT22;34330;52.08032700;5.40923460;2023-11-21T02:31:39;11.10;96.80
6536;DHT22;34330;52.08032700;5.40923460;2023-11-21T02:34:15;11.20;97.00
6536;DHT22;34330;52.08032700;5.40923460;2023-11-21T02:36:43;11.20;97.00
6536;DHT22;34330;52.08032700;5.40923460;2023-11-21T02:39:12;11.20;97.00
6536;DHT22;34330;52.08032700;5.40923460;2023-11-21T02:41:41;11.20;97.10
6536;DHT22;34330;52.08032700;5.40923460;2023-11-21T02:44:09;11.20;97.20
6536;DHT22;34330;52.08032700;5.40923460;2023-11-21T02:46:37;11.20;97.20
6536;DHT22;34330;52.08032700;5.40923460;2023-11-21T02:49:06;11.30;97.30
6536;DHT22;34330;52.08032700;5.40923460;2023-11-21T02:51:34;11.40;97.40
6536;DHT22;34330;52.08032700;5.40923460;2023-11-21T02:54:02;11.20;97.30
6536;DHT22;34330;52.08032700;5.40923460;2023-11-21T02:56:34;11.30;97.40
6536;DHT22;34330;52.08032700;5.40923460;2023-11-21T02:59:02;11.50;97.50
6536;DHT22;34330;52.08032700;5.40923460;2023-11-21T03:01:30;11.30;97.40
6536;DHT22;34330;52.08032700;5.40923460;2023-11-21T03:03:58;11.30;97.50
6536;DHT22;34330;52.08032700;5.40923460;2023-11-21T03:06:26;11.40;97.60
6536;DHT22;34330;52.08032700;5.40923460;2023-11-21T03:08:54;11.40;97.60
6536;DHT22;34330;52.08032700;5.40923460;2023-11-21T03:11:22;11.40;97.60
6536;DHT22;34330;52.08032700;5.40923460;2023-11-21T03:13:51;11.70;97.70
6536;DHT22;34330;52.08032700;5.40923460;2023-11-21T03:16:19;11.40;97.60
6536;DHT22;34330;52.08032700;5.40923460;2023-11-21T03:18:47;11.60;97.70
6536;DHT22;34330;52.08032700;5.40923460;2023-11-21T03:21:15;11.40;97.70
6536;DHT22;34330;52.08032700;5.40923460;2023-11-21T03:23:43;11.40;97.70
6536;DHT22;34330;52.08032700;5.40923460;2023-11-21T03:26:12;11.60;97.80
6536;DHT22;34330;52.08032700;5.40923460;2023-11-21T03:28:40;11.50;97.80
6536;DHT22;34330;52.08032700;5.40923460;2023-11-21T03:31:09;11.50;97.80
6536;DHT22;34330;52.08032700;5.40923460;2023-11-21T03:33:37;11.60;97.80
6536;DHT22;34330;52.08032700;5.40923460;2023-11-21T03:36:06;11.50;97.80
6536;DHT22;34330;52.08032700;5.40923460;2023-11-21T03:38:37;11.50;97.90
6536;DHT22;34330;52.08032700;5.40923460;2023-11-21T03:41:05;11.60;97.80
6536;DHT22;34330;52.08032700;5.40923460;2023-11-21T03:43:34;11.60;97.80
6536;DHT22;34330;52.08032700;5.40923460;2023-11-21T03:46:02;11.60;97.80
6536;DHT22;34330;52.08032700;5.40923460;2023-11-21T03:48:31;11.60;97.80
6536;DHT22;34330;52.08032700;5.40923460;2023-11-21T03:51:00;11.70;97.90
6536;DHT22;34330;52.08032700;5.40923460;2023-11-21T03:53:28;11.60;97.80
6536;DHT22;34330;52.08032700;5.40923460;2023-11-21T03:55:57;11.70;97.90
6536;DHT22;34330;52.08032700;5.40923460;2023-11-21T03:58:28;11.70;97.90
6536;DHT22;34330;52.08032700;5.40923460;2023-11-21T04:00:56;11.70;97.90
6536;DHT22;34330;52.08032700;5.40923460;2023-11-21T04:03:24;11.70;97.90
6536;DHT22;34330;52.08032700;5.40923460;2023-11-21T04:05:53;11.70;97.80
6536;DHT22;34330;52.08032700;5.40923460;2023-11-21T04:08:21;11.70;97.90
6536;DHT22;34330;52.08032700;5.40923460;2023-11-21T04:10:49;11.80;97.90
6536;DHT22;34330;52.08032700;5.40923460;2023-11-21T04:13:19;11.80;97.90
6536;DHT22;34330;52.08032700;5.40923460;2023-11-21T04:15:47;11.80;97.80
6536;DHT22;34330;52.08032700;5.40923460;2023-11-21T04:18:15;11.80;97.90
6536;DHT22;34330;52.08032700;5.40923460;2023-11-21T04:20:43;11.80;97.90
6536;DHT22;34330;52.08032700;5.40923460;2023-11-21T04:23:12;11.80;97.80
6536;DHT22;34330;52.08032700;5.40923460;2023-11-21T04:25:40;11.80;97.80
6536;DHT22;34330;52.08032700;5.40923460;2023-11-21T04:28:08;11.80;97.80
6536;DHT22;34330;52.08032700;5.40923460;2023-11-21T04:30:36;11.80;98.20
6536;DHT22;34330;52.08032700;5.40923460;2023-11-21T04:33:06;11.80;97.80
6536;DHT22;34330;52.08032700;5.40923460;2023-11-21T04:35:34;11.90;97.90
6536;DHT22;34330;52.08032700;5.40923460;2023-11-21T04:38:02;11.90;97.90
6536;DHT22;34330;52.08032700;5.40923460;2023-11-21T04:40:31;11.80;97.80
6536;DHT22;34330;52.08032700;5.40923460;2023-11-21T04:42:59;11.90;97.90
6536;DHT22;34330;52.08032700;5.40923460;2023-11-21T04:45:28;11.90;97.90
6536;DHT22;34330;52.08032700;5.40923460;2023-11-21T04:47:56;11.90;97.90
6536;DHT22;34330;52.08032700;5.40923460;2023-11-21T04:50:24;11.80;97.90
6536;DHT22;34330;52.08032700;5.40923460;2023-11-21T04:52:53;11.90;98.00
6536;DHT22;34330;52.08032700;5.40923460;2023-11-21T04:55:21;11.90;98.00
6536;DHT22;34330;52.08032700;5.40923460;2023-11-21T04:57:51;11.90;98.00
6536;DHT22;34330;52.08032700;5.40923460;2023-11-21T05:00:19;11.90;98.10
6536;DHT22;34330;52.08032700;5.40923460;2023-11-21T05:02:48;11.90;98.10
6536;DHT22;34330;52.08032700;5.40923460;2023-11-21T05:05:16;11.90;98.10
6536;DHT22;34330;52.08032700;5.40923460;2023-11-21T05:07:44;12.00;98.20
6536;DHT22;34330;52.08032700;5.40923460;2023-11-21T05:10:12;12.00;98.20
6536;DHT22;34330;52.08032700;5.40923460;2023-11-21T05:12:42;12.00;98.50
6536;DHT22;34330;52.08032700;5.40923460;2023-11-21T05:15:14;12.00;98.20
6536;DHT22;34330;52.08032700;5.40923460;2023-11-21T05:17:43;12.00;98.30
6536;DHT22;34330;52.08032700;5.40923460;2023-11-21T05:20:13;12.00;98.30
6536;DHT22;34330;52.08032700;5.40923460;2023-11-21T05:22:45;12.10;98.10
6536;DHT22;34330;52.08032700;5.40923460;2023-11-21T05:25:13;12.10;98.30
6536;DHT22;34330;52.08032700;5.40923460;2023-11-21T05:27:42;12.10;98.30
6536;DHT22;34330;52.08032700;5.40923460;2023-11-21T05:30:12;12.10;98.20
6536;DHT22;34330;52.08032700;5.40923460;2023-11-21T05:32:41;12.10;98.30
6536;DHT22;34330;52.08032700;5.40923460;2023-11-21T05:35:10;12.10;98.30
6536;DHT22;34330;52.08032700;5.40923460;2023-11-21T05:37:42;12.10;98.30
6536;DHT22;34330;52.08032700;5.40923460;2023-11-21T05:40:10;12.10;98.40
6536;DHT22;34330;52.08032700;5.40923460;2023-11-21T05:42:40;12.10;98.30
6536;DHT22;34330;52.08032700;5.40923460;2023-11-21T05:45:10;12.20;98.40
6536;DHT22;34330;52.08032700;5.40923460;2023-11-21T05:47:41;12.20;98.40
6536;DHT22;34330;52.08032700;5.40923460;2023-11-21T05:50:11;12.20;98.70
6536;DHT22;34330;52.08032700;5.40923460;2023-11-21T05:52:42;12.20;98.40
6536;DHT22;34330;52.08032700;5.40923460;2023-11-21T05:55:10;12.20;98.40
6536;DHT22;34330;52.08032700;5.40923460;2023-11-21T05:57:41;12.20;98.30
6536;DHT22;34330;52.08032700;5.40923460;2023-11-21T06:00:14;12.20;98.40
6536;DHT22;34330;52.08032700;5.40923460;2023-11-21T06:02:47;12.20;98.30
6536;DHT22;34330;52.08032700;5.40923460;2023-11-21T06:05:18;12.20;98.40
6536;DHT22;34330;52.08032700;5.40923460;2023-11-21T06:07:46;12.20;98.40
6536;DHT22;34330;52.08032700;5.40923460;2023-11-21T06:10:15;12.20;98.40
6536;DHT22;34330;52.08032700;5.40923460;2023-11-21T06:12:44;12.20;98.40
6536;DHT22;34330;52.08032700;5.40923460;2023-11-21T06:15:14;12.30;98.40
6536;DHT22;34330;52.08032700;5.40923460;2023-11-21T06:17:42;12.30;98.40
6536;DHT22;34330;52.08032700;5.40923460;2023-11-21T06:20:11;12.30;98.40
6536;DHT22;34330;52.08032700;5.40923460;2023-11-21T06:22:42;12.30;98.40
6536;DHT22;34330;52.08032700;5.40923460;2023-11-21T06:25:11;12.30;98.50
6536;DHT22;34330;52.08032700;5.40923460;2023-11-21T06:27:41;12.30;98.50
6536;DHT22;34330;52.08032700;5.40923460;2023-11-21T06:30:10;12.30;98.50
6536;DHT22;34330;52.08032700;5.40923460;2023-11-21T06:32:40;12.30;98.50
6536;DHT22;34330;52.08032700;5.40923460;2023-11-21T06:35:08;12.30;98.50
6536;DHT22;34330;52.08032700;5.40923460;2023-11-21T06:37:37;12.30;98.50
6536;DHT22;34330;52.08032700;5.40923460;2023-11-21T06:40:06;12.30;98.90
6536;DHT22;34330;52.08032700;5.40923460;2023-11-21T06:42:34;12.30;98.70
6536;DHT22;34330;52.08032700;5.40923460;2023-11-21T06:45:02;12.30;98.60
6536;DHT22;34330;52.08032700;5.40923460;2023-11-21T06:47:30;12.30;98.70
6536;DHT22;34330;52.08032700;5.40923460;2023-11-21T06:50:00;12.30;98.70
6536;DHT22;34330;52.08032700;5.40923460;2023-11-21T06:52:28;12.30;98.70
6536;DHT22;34330;52.08032700;5.40923460;2023-11-21T06:54:56;12.30;98.70
6536;DHT22;34330;52.08032700;5.40923460;2023-11-21T06:57:24;12.40;98.80
6536;DHT22;34330;52.08032700;5.40923460;2023-11-21T06:59:52;12.40;98.80
6536;DHT22;34330;52.08032700;5.40923460;2023-11-21T07:02:20;12.40;98.70
6536;DHT22;34330;52.08032700;5.40923460;2023-11-21T07:04:48;12.40;98.80
6536;DHT22;34330;52.08032700;5.40923460;2023-11-21T07:07:18;12.40;98.80
6536;DHT22;34330;52.08032700;5.40923460;2023-11-21T07:09:46;12.40;98.80
6536;DHT22;34330;52.08032700;5.40923460;2023-11-21T07:12:15;12.50;98.90
6536;DHT22;34330;52.08032700;5.40923460;2023-11-21T07:14:43;12.50;98.90
6536;DHT22;34330;52.08032700;5.40923460;2023-11-21T07:17:11;12.50;98.90
6536;DHT22;34330;52.08032700;5.40923460;2023-11-21T07:19:40;13.20;99.30
6536;DHT22;34330;52.08032700;5.40923460;2023-11-21T07:22:08;12.50;98.90
6536;DHT22;34330;52.08032700;5.40923460;2023-11-21T07:24:38;12.50;98.90
6536;DHT22;34330;52.08032700;5.40923460;2023-11-21T07:27:07;12.60;99.00
6536;DHT22;34330;52.08032700;5.40923460;2023-11-21T07:29:35;12.60;99.00
6536;DHT22;34330;52.08032700;5.40923460;2023-11-21T07:32:03;12.60;99.00
6536;DHT22;34330;52.08032700;5.40923460;2023-11-21T07:34:31;12.60;99.10
6536;DHT22;34330;52.08032700;5.40923460;2023-11-21T07:36:59;12.60;99.10
6536;DHT22;34330;52.08032700;5.40923460;2023-11-21T07:39:27;12.60;99.10
6536;DHT22;34330;52.08032700;5.40923460;2023-11-21T07:41:56;12.70;99.20
6536;DHT22;34330;52.08032700;5.40923460;2023-11-21T07:44:24;12.70;99.20
6536;DHT22;34330;52.08032700;5.40923460;2023-11-21T07:46:52;12.70;99.20
6536;DHT22;34330;52.08032700;5.40923460;2023-11-21T07:49:24;12.70;99.20
6536;DHT22;34330;52.08032700;5.40923460;2023-11-21T07:51:53;12.70;99.20
6536;DHT22;34330;52.08032700;5.40923460;2023-11-21T07:54:21;12.80;99.20
6536;DHT22;34330;52.08032700;5.40923460;2023-11-21T07:56:52;12.80;99.30
6536;DHT22;34330;52.08032700;5.40923460;2023-11-21T07:59:21;12.80;99.20
6536;DHT22;34330;52.08032700;5.40923460;2023-11-21T08:01:49;12.80;99.30
6536;DHT22;34330;52.08032700;5.40923460;2023-11-21T08:04:17;11.50;98.60
6536;DHT22;34330;52.08032700;5.40923460;2023-11-21T08:06:45;12.80;99.30
6536;DHT22;34330;52.08032700;5.40923460;2023-11-21T08:09:14;12.90;99.40
6536;DHT22;34330;52.08032700;5.40923460;2023-11-21T08:11:44;12.90;99.40
6536;DHT22;34330;52.08032700;5.40923460;2023-11-21T08:14:14;12.90;99.40
6536;DHT22;34330;52.08032700;5.40923460;2023-11-21T08:16:43;12.90;99.50
6536;DHT22;34330;52.08032700;5.40923460;2023-11-21T08:19:11;13.00;99.60
6536;DHT22;34330;52.08032700;5.40923460;2023-11-21T08:21:39;13.00;99.60
6536;DHT22;34330;52.08032700;5.40923460;2023-11-21T08:24:07;13.00;99.60
6536;DHT22;34330;52.08032700;5.40923460;2023-11-21T08:26:38;13.10;99.70
6536;DHT22;34330;52.08032700;5.40923460;2023-11-21T08:29:05;13.10;99.70
6536;DHT22;34330;52.08032700;5.40923460;2023-11-21T08:31:34;13.10;99.80
6536;DHT22;34330;52.08032700;5.40923460;2023-11-21T08:34:04;13.10;99.80
6536;DHT22;34330;52.08032700;5.40923460;2023-11-21T08:36:32;13.20;99.80
6536;DHT22;34330;52.08032700;5.40923460;2023-11-21T08:39:00;13.20;99.80
6536;DHT22;34330;52.08032700;5.40923460;2023-11-21T08:41:28;13.30;99.90
6536;DHT22;34330;52.08032700;5.40923460;2023-11-21T08:43:57;13.30;99.90
6536;DHT22;34330;52.08032700;5.40923460;2023-11-21T08:46:25;13.30;99.90
6536;DHT22;34330;52.08032700;5.40923460;2023-11-21T08:48:53;13.30;99.90
6536;DHT22;34330;52.08032700;5.40923460;2023-11-21T08:51:22;13.40;99.90
6536;DHT22;34330;52.08032700;5.40923460;2023-11-21T08:53:51;13.40;99.90
6536;DHT22;34330;52.08032700;5.40923460;2023-11-21T08:56:19;13.40;99.90
6536;DHT22;34330;52.08032700;5.40923460;2023-11-21T08:58:47;13.40;99.90
6536;DHT22;34330;52.08032700;5.40923460;2023-11-21T09:01:17;13.40;99.90
6536;DHT22;34330;52.08032700;5.40923460;2023-11-21T09:03:45;13.50;99.90
6536;DHT22;34330;52.08032700;5.40923460;2023-11-21T09:06:14;13.50;99.90
6536;DHT22;34330;52.08032700;5.40923460;2023-11-21T09:08:43;13.50;99.90
6536;DHT22;34330;52.08032700;5.40923460;2023-11-21T09:11:11;13.50;99.90
6536;DHT22;34330;52.08032700;5.40923460;2023-11-21T09:13:40;13.50;99.90
6536;DHT22;34330;52.08032700;5.40923460;2023-11-21T09:16:09;13.60;99.90
6536;DHT22;34330;52.08032700;5.40923460;2023-11-21T09:18:37;13.60;99.90
6536;DHT22;34330;52.08032700;5.40923460;2023-11-21T09:21:06;13.60;99.90
6536;DHT22;34330;52.08032700;5.40923460;2023-11-21T09:23:35;13.70;99.90
6536;DHT22;34330;52.08032700;5.40923460;2023-11-21T09:26:04;13.70;99.90
6536;DHT22;34330;52.08032700;5.40923460;2023-11-21T09:28:32;13.80;99.90
6536;DHT22;34330;52.08032700;5.40923460;2023-11-21T09:31:01;13.80;99.90
6536;DHT22;34330;52.08032700;5.40923460;2023-11-21T09:33:32;13.80;99.90
6536;DHT22;34330;52.08032700;5.40923460;2023-11-21T09:36:01;13.90;99.90
6536;DHT22;34330;52.08032700;5.40923460;2023-11-21T09:38:31;13.90;99.90
6536;DHT22;34330;52.08032700;5.40923460;2023-11-21T09:41:01;13.90;99.90
6536;DHT22;34330;52.08032700;5.40923460;2023-11-21T09:43:32;13.90;99.90
6536;DHT22;34330;52.08032700;5.40923460;2023-11-21T09:46:01;14.00;99.90
6536;DHT22;34330;52.08032700;5.40923460;2023-11-21T09:48:32;14.00;99.90
6536;DHT22;34330;52.08032700;5.40923460;2023-11-21T09:51:01;14.00;99.90
6536;DHT22;34330;52.08032700;5.40923460;2023-11-21T09:53:32;14.00;99.90
6536;DHT22;34330;52.08032700;5.40923460;2023-11-21T09:56:01;14.00;99.90
6536;DHT22;34330;52.08032700;5.40923460;2023-11-21T09:58:32;14.00;99.90
6536;DHT22;34330;52.08032700;5.40923460;2023-11-21T10:01:01;13.90;99.90
6536;DHT22;34330;52.08032700;5.40923460;2023-11-21T10:03:30;14.00;99.90
6536;DHT22;34330;52.08032700;5.40923460;2023-11-21T10:05:59;14.00;99.80
6536;DHT22;34330;52.08032700;5.40923460;2023-11-21T10:08:28;14.00;99.80
6536;DHT22;34330;52.08032700;5.40923460;2023-11-21T10:11:15;14.00;99.70
6536;DHT22;34330;52.08032700;5.40923460;2023-11-21T10:13:46;14.30;99.80
6536;DHT22;34330;52.08032700;5.40923460;2023-11-21T10:16:18;14.00;99.60
6536;DHT22;34330;52.08032700;5.40923460;2023-11-21T10:18:52;14.00;99.60
6536;DHT22;34330;52.08032700;5.40923460;2023-11-21T10:21:29;14.00;99.60
6536;DHT22;34330;52.08032700;5.40923460;2023-11-21T10:23:57;14.20;99.60
6536;DHT22;34330;52.08032700;5.40923460;2023-11-21T10:26:26;13.90;99.40
6536;DHT22;34330;52.08032700;5.40923460;2023-11-21T10:28:59;14.00;99.60
6536;DHT22;34330;52.08032700;5.40923460;2023-11-21T10:31:27;13.90;99.70
6536;DHT22;34330;52.08032700;5.40923460;2023-11-21T10:34:11;14.00;99.60
6536;DHT22;34330;52.08032700;5.40923460;2023-11-21T10:36:39;14.00;99.70
6536;DHT22;34330;52.08032700;5.40923460;2023-11-21T10:39:07;14.00;99.60
6536;DHT22;34330;52.08032700;5.40923460;2023-11-21T10:41:37;14.00;99.50
6536;DHT22;34330;52.08032700;5.40923460;2023-11-21T10:44:08;14.00;99.50
6536;DHT22;34330;52.08032700;5.40923460;2023-11-21T10:46:38;14.00;99.40
6536;DHT22;34330;52.08032700;5.40923460;2023-11-21T10:49:07;14.00;99.30
6536;DHT22;34330;52.08032700;5.40923460;2023-11-21T10:51:36;14.00;99.20
6536;DHT22;34330;52.08032700;5.40923460;2023-11-21T10:54:05;14.10;99.20
6536;DHT22;34330;52.08032700;5.40923460;2023-11-21T10:56:33;14.00;99.00
6536;DHT22;34330;52.08032700;5.40923460;2023-11-21T10:59:10;14.00;98.90
6536;DHT22;34330;52.08032700;5.40923460;2023-11-21T11:01:42;14.00;98.80
6536;DHT22;34330;52.08032700;5.40923460;2023-11-21T11:04:12;14.00;98.80
6536;DHT22;34330;52.08032700;5.40923460;2023-11-21T11:06:43;14.00;98.80
6536;DHT22;34330;52.08032700;5.40923460;2023-11-21T11:09:13;13.90;98.60
6536;DHT22;34330;52.08032700;5.40923460;2023-11-21T11:11:43;13.90;98.50
6536;DHT22;34330;52.08032700;5.40923460;2023-11-21T11:14:16;13.90;98.60
6536;DHT22;34330;52.08032700;5.40923460;2023-11-21T11:16:46;13.90;98.70
6536;DHT22;34330;52.08032700;5.40923460;2023-11-21T11:19:16;13.90;98.80
6536;DHT22;34330;52.08032700;5.40923460;2023-11-21T11:21:48;13.90;98.80
6536;DHT22;34330;52.08032700;5.40923460;2023-11-21T11:24:32;13.90;98.90
6536;DHT22;34330;52.08032700;5.40923460;2023-11-21T11:27:10;13.90;99.00
6536;DHT22;34330;52.08032700;5.40923460;2023-11-21T11:29:53;13.90;99.00
6536;DHT22;34330;52.08032700;5.40923460;2023-11-21T11:32:27;13.90;98.80
6536;DHT22;34330;52.08032700;5.40923460;2023-11-21T11:35:05;13.90;98.90
6536;DHT22;34330;52.08032700;5.40923460;2023-11-21T11:37:35;13.90;98.80
6536;DHT22;34330;52.08032700;5.40923460;2023-11-21T11:40:06;13.90;98.80
6536;DHT22;34330;52.08032700;5.40923460;2023-11-21T11:42:35;13.90;98.70
6536;DHT22;34330;52.08032700;5.40923460;2023-11-21T11:45:17;13.90;98.70
6536;DHT22;34330;52.08032700;5.40923460;2023-11-21T11:47:47;13.90;98.70
6536;DHT22;34330;52.08032700;5.40923460;2023-11-21T11:50:17;13.90;98.70
6536;DHT22;34330;52.08032700;5.40923460;2023-11-21T11:52:48;13.90;98.70
6536;DHT22;34330;52.08032700;5.40923460;2023-11-21T11:55:19;13.80;98.80
6536;DHT22;34330;52.08032700;5.40923460;2023-11-21T11:57:51;13.80;98.80
6536;DHT22;34330;52.08032700;5.40923460;2023-11-21T12:00:22;13.80;98.80
6536;DHT22;34330;52.08032700;5.40923460;2023-11-21T12:03:04;13.80;98.90
6536;DHT22;34330;52.08032700;5.40923460;2023-11-21T12:05:35;13.90;99.00
6536;DHT22;34330;52.08032700;5.40923460;2023-11-21T12:08:06;13.90;99.00
6536;DHT22;34330;52.08032700;5.40923460;2023-11-21T12:10:36;13.90;99.00
6536;DHT22;34330;52.08032700;5.40923460;2023-11-21T12:13:06;13.90;98.90
6536;DHT22;34330;52.08032700;5.40923460;2023-11-21T12:15:36;13.90;99.00
6536;DHT22;34330;52.08032700;5.40923460;2023-11-21T12:18:06;13.90;99.00
6536;DHT22;34330;52.08032700;5.40923460;2023-11-21T12:20:34;13.90;98.90
6536;DHT22;34330;52.08032700;5.40923460;2023-11-21T12:23:07;14.00;98.90
6536;DHT22;34330;52.08032700;5.40923460;2023-11-21T12:25:36;13.90;98.80
6536;DHT22;34330;52.08032700;5.40923460;2023-11-21T12:28:04;13.90;98.70
6536;DHT22;34330;52.08032700;5.40923460;2023-11-21T12:30:34;13.90;98.70
6536;DHT22;34330;52.08032700;5.40923460;2023-11-21T12:33:04;13.90;98.80
6536;DHT22;34330;52.08032700;5.40923460;2023-11-21T12:35:34;13.90;98.80
6536;DHT22;34330;52.08032700;5.40923460;2023-11-21T12:38:04;13.90;98.80
6536;DHT22;34330;52.08032700;5.40923460;2023-11-21T12:40:32;13.90;98.70
6536;DHT22;34330;52.08032700;5.40923460;2023-11-21T12:43:01;13.90;98.70
6536;DHT22;34330;52.08032700;5.40923460;2023-11-21T12:45:30;13.90;98.60
6536;DHT22;34330;52.08032700;5.40923460;2023-11-21T12:48:00;13.90;98.60
6536;DHT22;34330;52.08032700;5.40923460;2023-11-21T12:50:35;13.90;98.60
6536;DHT22;34330;52.08032700;5.40923460;2023-11-21T12:53:06;14.00;98.60
6536;DHT22;34330;52.08032700;5.40923460;2023-11-21T12:55:36;13.90;98.50
6536;DHT22;34330;52.08032700;5.40923460;2023-11-21T12:58:06;14.00;98.60
6536;DHT22;34330;52.08032700;5.40923460;2023-11-21T13:00:38;13.90;98.60
6536;DHT22;34330;52.08032700;5.40923460;2023-11-21T13:03:10;13.90;98.60
6536;DHT22;34330;52.08032700;5.40923460;2023-11-21T13:05:45;14.00;98.60
6536;DHT22;34330;52.08032700;5.40923460;2023-11-21T13:08:17;14.00;98.60
6536;DHT22;34330;52.08032700;5.40923460;2023-11-21T13:10:50;14.00;98.60
6536;DHT22;34330;52.08032700;5.40923460;2023-11-21T13:13:19;14.90;99.30
6536;DHT22;34330;52.08032700;5.40923460;2023-11-21T13:15:52;14.00;98.60
6536;DHT22;34330;52.08032700;5.40923460;2023-11-21T13:18:22;14.00;98.50
6536;DHT22;34330;52.08032700;5.40923460;2023-11-21T13:20:53;14.00;98.50
6536;DHT22;34330;52.08032700;5.40923460;2023-11-21T13:23:22;14.00;98.50
6536;DHT22;34330;52.08032700;5.40923460;2023-11-21T13:25:50;14.10;98.50
6536;DHT22;34330;52.08032700;5.40923460;2023-11-21T13:28:28;14.10;98.40
6536;DHT22;34330;52.08032700;5.40923460;2023-11-21T13:31:01;14.10;98.40
6536;DHT22;34330;52.08032700;5.40923460;2023-11-21T13:33:37;14.10;98.40
6536;DHT22;34330;52.08032700;5.40923460;2023-11-21T13:36:07;14.10;98.20
6536;DHT22;34330;52.08032700;5.40923460;2023-11-21T13:38:38;14.10;98.10
6536;DHT22;34330;52.08032700;5.40923460;2023-11-21T13:41:10;14.10;98.10
6536;DHT22;34330;52.08032700;5.40923460;2023-11-21T13:43:41;14.10;98.10
6536;DHT22;34330;52.08032700;5.40923460;2023-11-21T13:46:11;14.10;98.20